createdAt,value
2019-02-25T00:00:07.123Z,45.40
2019-02-25T00:02:36.431Z,45.70
2019-02-25T00:05:05.904Z,45.90
2019-02-25T00:07:35.365Z,46.20
2019-02-25T00:10:05.870Z,46.20
2019-02-25T00:12:35.775Z,46.20
2019-02-25T00:15:05.193Z,46.30
2019-02-25T00:17:35.264Z,46.40
2019-02-25T00:20:04.722Z,46.60
2019-02-25T00:22:33.991Z,46.80
2019-02-25T00:25:03.089Z,46.90
2019-02-25T00:27:32.214Z,46.80
2019-02-25T00:30:01.397Z,46.50
2019-02-25T00:32:30.480Z,46.50
2019-02-25T00:35:00.425Z,46.70
2019-02-25T00:37:29.670Z,46.80
2019-02-25T00:39:58.836Z,47.00
2019-02-25T00:42:28.781Z,47.20
2019-02-25T00:45:01.978Z,47.30
2019-02-25T00:47:31.908Z,47.20
2019-02-25T00:50:01.134Z,47.30
2019-02-25T00:52:30.149Z,47.50
2019-02-25T00:54:59.262Z,47.40
2019-02-25T00:57:28.704Z,47.30
2019-02-25T00:59:57.585Z,47.20
2019-02-25T01:02:26.626Z,47.10
2019-02-25T01:04:55.718Z,47.00
2019-02-25T01:07:25.032Z,47.10
2019-02-25T01:09:54.077Z,47.20
2019-02-25T01:12:23.361Z,47.10
2019-02-25T01:14:52.688Z,47.00
2019-02-25T01:17:22.130Z,47.30
2019-02-25T01:19:51.458Z,47.40
2019-02-25T01:22:20.514Z,47.40
2019-02-25T01:24:49.513Z,47.50
2019-02-25T01:27:18.470Z,47.30
2019-02-25T01:29:47.710Z,47.10
2019-02-25T01:32:16.930Z,47.40
2019-02-25T01:34:45.993Z,47.80
2019-02-25T01:37:15.105Z,47.50
2019-02-25T01:39:44.653Z,47.50
2019-02-25T01:42:13.742Z,47.40
2019-02-25T01:44:43.042Z,47.50
2019-02-25T01:47:11.936Z,47.40
2019-02-25T01:49:40.847Z,47.30
2019-02-25T01:52:10.068Z,47.30
2019-02-25T01:54:39.322Z,47.00
2019-02-25T01:57:08.591Z,47.30
2019-02-25T01:59:37.734Z,47.00
2019-02-25T02:02:06.838Z,46.90
2019-02-25T02:04:35.846Z,46.70
2019-02-25T02:07:04.941Z,46.80
2019-02-25T02:09:34.217Z,47.40
2019-02-25T02:12:03.290Z,46.90
2019-02-25T02:14:32.579Z,46.80
2019-02-25T02:17:01.913Z,47.20
2019-02-25T02:19:31.090Z,47.20
2019-02-25T02:22:00.484Z,47.10
2019-02-25T02:24:29.608Z,47.20
2019-02-25T02:26:58.594Z,47.10
2019-02-25T02:29:27.694Z,47.50
2019-02-25T02:31:56.801Z,47.40
2019-02-25T02:34:25.872Z,47.30
2019-02-25T02:36:55.201Z,47.40
2019-02-25T02:39:24.198Z,47.10
2019-02-25T02:42:16.142Z,47.10
2019-02-25T02:44:46.983Z,47.00
2019-02-25T02:47:28.505Z,47.20
2019-02-25T02:49:57.678Z,47.30
2019-02-25T02:52:26.610Z,47.30
2019-02-25T02:54:56.184Z,47.20
2019-02-25T02:57:25.224Z,47.30
2019-02-25T02:59:54.292Z,47.30
2019-02-25T03:02:23.389Z,47.20
2019-02-25T03:04:52.809Z,47.00
2019-02-25T03:07:22.244Z,47.10
2019-02-25T03:09:51.159Z,47.30
2019-02-25T03:12:20.431Z,47.50
2019-02-25T03:14:49.399Z,47.50
2019-02-25T03:17:18.451Z,47.60
2019-02-25T03:19:47.353Z,47.80
2019-02-25T03:22:16.700Z,48.10
2019-02-25T03:24:46.449Z,48.50
2019-02-25T03:27:15.469Z,48.70
2019-02-25T03:29:44.597Z,48.90
2019-02-25T03:32:13.676Z,49.10
2019-02-25T03:34:43.029Z,49.50
2019-02-25T03:37:12.076Z,49.50
2019-02-25T03:39:40.981Z,49.70
2019-02-25T03:42:09.929Z,49.80
2019-02-25T03:44:39.068Z,49.90
2019-02-25T03:47:08.335Z,50.80
2019-02-25T03:49:37.738Z,50.50
2019-02-25T03:52:06.977Z,50.50
2019-02-25T03:54:36.035Z,50.60
2019-02-25T03:57:05.216Z,50.40
2019-02-25T03:59:34.392Z,50.00
2019-02-25T04:02:03.478Z,50.20
2019-02-25T04:04:32.522Z,50.20
2019-02-25T04:07:01.498Z,50.60
2019-02-25T04:09:30.885Z,51.10
2019-02-25T04:11:59.981Z,51.40
2019-02-25T04:14:29.052Z,51.80
2019-02-25T04:16:58.429Z,52.30
2019-02-25T04:19:27.494Z,52.70
2019-02-25T04:21:56.443Z,52.70
2019-02-25T04:24:25.498Z,52.50
2019-02-25T04:26:55.707Z,52.60
2019-02-25T04:29:25.059Z,52.50
2019-02-25T04:31:53.971Z,52.70
2019-02-25T04:34:23.437Z,52.90
2019-02-25T04:36:52.983Z,53.20
2019-02-25T04:39:22.556Z,53.20
2019-02-25T04:41:51.906Z,52.90
2019-02-25T04:44:20.888Z,53.30
2019-02-25T04:46:50.309Z,53.10
2019-02-25T04:49:19.395Z,52.90
2019-02-25T04:51:48.744Z,53.00
2019-02-25T04:54:17.746Z,53.30
2019-02-25T04:56:46.812Z,53.10
2019-02-25T04:59:16.078Z,53.30
2019-02-25T05:01:45.134Z,53.50
2019-02-25T05:04:14.417Z,53.80
2019-02-25T05:06:43.932Z,53.00
2019-02-25T05:09:13.024Z,52.80
2019-02-25T05:11:42.276Z,52.70
2019-02-25T05:14:11.654Z,52.70
2019-02-25T05:16:40.971Z,52.60
2019-02-25T05:19:10.020Z,52.80
2019-02-25T05:21:39.555Z,52.20
2019-02-25T05:24:08.532Z,52.00
2019-02-25T05:26:37.776Z,51.90
2019-02-25T05:29:06.830Z,51.80
2019-02-25T05:31:36.164Z,52.00
2019-02-25T05:34:05.535Z,52.10
2019-02-25T05:36:34.611Z,52.40
2019-02-25T05:39:05.330Z,52.50
2019-02-25T05:41:34.485Z,51.80
2019-02-25T05:44:03.612Z,51.60
2019-02-25T05:46:33.123Z,51.40
2019-02-25T05:49:02.476Z,51.50
2019-02-25T05:51:31.742Z,51.30
2019-02-25T05:54:01.344Z,51.40
2019-02-25T05:56:30.400Z,51.40
2019-02-25T05:58:59.628Z,51.50
2019-02-25T06:01:28.738Z,51.40
2019-02-25T06:03:57.626Z,51.50
2019-02-25T06:06:26.860Z,51.50
2019-02-25T06:08:56.407Z,51.50
2019-02-25T06:11:25.471Z,51.70
2019-02-25T06:13:54.572Z,52.40
2019-02-25T06:16:23.906Z,52.80
2019-02-25T06:18:53.119Z,52.90
2019-02-25T06:21:23.266Z,53.90
2019-02-25T06:23:52.382Z,53.70
2019-02-25T06:26:21.721Z,53.50
2019-02-25T06:28:50.698Z,53.30
2019-02-25T06:31:19.635Z,54.20
2019-02-25T06:33:48.504Z,54.60
2019-02-25T06:36:17.402Z,54.50
2019-02-25T06:38:46.670Z,53.50
2019-02-25T06:41:16.046Z,53.50
2019-02-25T06:43:44.928Z,53.60
2019-02-25T06:46:13.923Z,53.20
2019-02-25T06:48:42.909Z,53.10
2019-02-25T06:51:11.839Z,53.30
2019-02-25T06:53:41.163Z,53.40
2019-02-25T06:56:10.926Z,53.50
2019-02-25T06:58:39.984Z,53.70
2019-02-25T07:01:09.020Z,53.70
2019-02-25T07:03:38.312Z,53.50
2019-02-25T07:06:28.267Z,53.50
2019-02-25T07:09:16.856Z,52.80
2019-02-25T07:11:58.945Z,52.00
2019-02-25T07:14:47.548Z,50.90
2019-02-25T07:17:25.421Z,51.40
2019-02-25T07:24:20.271Z,51.40
2019-02-25T07:27:08.370Z,51.00
2019-02-25T07:29:55.893Z,50.30
2019-02-25T07:33:00.722Z,50.40
2019-02-25T07:35:51.829Z,50.30
2019-02-25T07:38:49.134Z,50.80
2019-02-25T07:41:25.884Z,50.70
2019-02-25T07:44:02.032Z,48.50
2019-02-25T07:46:37.818Z,48.50
2019-02-25T07:49:14.263Z,47.80
2019-02-25T07:51:52.865Z,48.10
2019-02-25T07:54:40.970Z,48.40
2019-02-25T07:57:17.457Z,48.20
2019-02-25T08:00:02.915Z,48.00
2019-02-25T08:02:53.842Z,48.00
2019-02-25T08:05:40.901Z,48.00
2019-02-25T08:08:39.050Z,48.20
2019-02-25T08:11:18.088Z,48.50
2019-02-25T08:13:57.563Z,48.50
2019-02-25T08:16:48.949Z,48.90
2019-02-25T08:19:30.357Z,48.90
2019-02-25T08:22:18.390Z,48.50
2019-02-25T08:25:16.077Z,48.20
2019-02-25T08:28:04.260Z,47.80
2019-02-25T08:30:40.170Z,47.50
2019-02-25T08:33:29.065Z,47.40
2019-02-25T08:37:02.457Z,47.70
2019-02-25T08:39:56.602Z,47.30
2019-02-25T08:42:31.145Z,47.80
2019-02-25T08:45:09.872Z,47.80
2019-02-25T08:47:51.577Z,47.80
2019-02-25T08:50:20.554Z,47.90
2019-02-25T08:52:49.612Z,47.70
2019-02-25T08:55:19.025Z,47.10
2019-02-25T08:57:48.482Z,46.60
2019-02-25T09:00:17.544Z,46.50
2019-02-25T09:02:46.960Z,46.10
2019-02-25T09:05:16.240Z,45.40
2019-02-25T09:07:45.270Z,45.10
2019-02-25T09:10:15.039Z,45.10
2019-02-25T09:12:44.194Z,44.90
2019-02-25T09:15:13.347Z,44.70
2019-02-25T09:17:44.390Z,44.20
2019-02-25T09:20:14.467Z,43.90
2019-02-25T09:22:43.581Z,43.80
2019-02-25T09:25:12.887Z,43.80
2019-02-25T09:27:42.429Z,43.30
2019-02-25T09:30:14.043Z,43.10
2019-02-25T09:32:43.292Z,42.40
2019-02-25T09:35:12.375Z,42.20
2019-02-25T09:37:41.477Z,42.50
2019-02-25T09:40:12.918Z,41.90
2019-02-25T09:42:42.006Z,41.10
2019-02-25T09:45:13.241Z,41.40
2019-02-25T09:47:42.328Z,41.30
2019-02-25T09:50:12.524Z,40.70
2019-02-25T09:52:41.590Z,40.50
2019-02-25T09:55:11.660Z,40.20
2019-02-25T09:57:40.811Z,39.40
2019-02-25T10:00:13.972Z,38.80
2019-02-25T10:02:42.952Z,38.80
2019-02-25T10:05:12.519Z,38.60
2019-02-25T10:07:41.686Z,38.60
2019-02-25T10:10:12.553Z,38.70
2019-02-25T10:12:41.667Z,38.30
2019-02-25T10:15:12.296Z,38.40
2019-02-25T10:17:41.985Z,38.10
2019-02-25T10:20:11.417Z,38.30
2019-02-25T10:22:40.523Z,38.20
2019-02-25T10:25:09.971Z,38.30
2019-02-25T10:27:39.283Z,38.10
2019-02-25T10:30:10.040Z,38.00
2019-02-25T10:32:39.170Z,37.50
2019-02-25T10:35:10.710Z,37.90
2019-02-25T10:37:41.368Z,37.20
2019-02-25T10:40:13.167Z,37.20
2019-02-25T10:42:42.854Z,37.00
2019-02-25T10:45:14.795Z,36.90
2019-02-25T10:47:44.258Z,37.00
2019-02-25T10:50:14.758Z,36.40
2019-02-25T10:52:44.995Z,36.60
2019-02-25T10:55:40.070Z,36.40
2019-02-25T10:58:10.215Z,36.10
2019-02-25T11:00:41.622Z,36.60
2019-02-25T11:03:12.841Z,36.50
2019-02-25T11:05:41.608Z,36.40
2019-02-25T11:08:13.874Z,36.50
2019-02-25T11:10:48.663Z,37.00
2019-02-25T11:13:17.954Z,36.70
2019-02-25T11:15:48.426Z,36.80
2019-02-25T11:18:19.746Z,36.70
2019-02-25T11:20:48.938Z,37.30
2019-02-25T11:23:19.448Z,37.30
2019-02-25T11:25:51.504Z,37.60
2019-02-25T11:28:25.376Z,37.70
2019-02-25T11:30:53.809Z,37.80
2019-02-25T11:33:25.128Z,37.90
2019-02-25T11:35:53.913Z,38.60
2019-02-25T11:38:23.834Z,38.80
2019-02-25T11:40:54.092Z,38.70
2019-02-25T11:43:23.645Z,38.70
2019-02-25T11:45:53.011Z,38.70
2019-02-25T11:48:22.671Z,38.60
2019-02-25T11:50:52.309Z,38.70
2019-02-25T11:53:21.498Z,38.70
2019-02-25T11:55:50.612Z,39.30
2019-02-25T11:58:19.602Z,39.10
2019-02-25T12:00:49.372Z,39.10
2019-02-25T12:03:18.662Z,39.20
2019-02-25T12:05:47.690Z,39.10
2019-02-25T12:08:17.236Z,39.10
2019-02-25T12:10:46.344Z,39.80
2019-02-25T12:13:15.710Z,39.00
2019-02-25T12:15:45.069Z,38.90
2019-02-25T12:18:14.472Z,38.80
2019-02-25T12:20:43.570Z,38.90
2019-02-25T12:23:13.426Z,38.90
2019-02-25T12:25:42.436Z,38.70
2019-02-25T12:28:12.129Z,39.70
2019-02-25T12:30:41.587Z,39.10
2019-02-25T12:33:10.635Z,39.40
2019-02-25T12:35:39.858Z,39.10
2019-02-25T12:38:09.600Z,39.10
2019-02-25T12:40:38.826Z,39.20
2019-02-25T12:43:08.240Z,39.40
2019-02-25T12:45:37.253Z,39.80
2019-02-25T12:48:06.569Z,39.50
2019-02-25T12:50:55.147Z,39.20
2019-02-25T12:53:24.446Z,39.40
2019-02-25T12:55:53.523Z,39.60
2019-02-25T12:58:22.669Z,39.60
2019-02-25T13:00:51.862Z,40.10
2019-02-25T13:03:20.922Z,39.70
2019-02-25T13:05:50.449Z,39.30
2019-02-25T13:08:19.660Z,39.30
2019-02-25T13:10:49.205Z,39.40
2019-02-25T13:13:18.413Z,40.10
2019-02-25T13:15:47.551Z,39.30
2019-02-25T13:18:17.200Z,39.10
2019-02-25T13:20:47.547Z,39.10
2019-02-25T13:23:16.648Z,38.90
2019-02-25T13:25:45.807Z,38.50
2019-02-25T13:28:14.938Z,38.70
2019-02-25T13:30:44.486Z,38.80
2019-02-25T13:33:14.304Z,38.40
2019-02-25T13:35:43.520Z,38.30
2019-02-25T13:38:13.232Z,38.70
2019-02-25T13:40:42.803Z,38.20
2019-02-25T13:43:14.156Z,38.60
2019-02-25T13:45:43.427Z,38.20
2019-02-25T13:48:12.960Z,38.50
2019-02-25T13:50:43.138Z,37.80
2019-02-25T13:53:12.702Z,37.80
2019-02-25T13:55:42.148Z,37.80
2019-02-25T13:58:12.515Z,37.80
2019-02-25T14:00:42.058Z,37.70
2019-02-25T14:03:11.889Z,37.80
2019-02-25T14:05:41.377Z,36.50
2019-02-25T14:08:10.917Z,36.70
2019-02-25T14:10:39.978Z,36.70
2019-02-25T14:13:10.416Z,35.90
2019-02-25T14:15:40.104Z,36.10
2019-02-25T14:18:10.252Z,36.30
2019-02-25T14:20:40.356Z,36.30
2019-02-25T14:23:12.739Z,36.20
2019-02-25T14:25:42.185Z,36.40
2019-02-25T14:28:11.845Z,36.30
2019-02-25T14:30:41.423Z,36.00
2019-02-25T14:33:12.727Z,36.00
2019-02-25T14:35:41.942Z,36.30
2019-02-25T14:38:15.328Z,36.10
2019-02-25T14:40:44.811Z,36.40
2019-02-25T14:43:15.628Z,36.60
2019-02-25T14:45:46.486Z,36.70
2019-02-25T14:48:20.403Z,37.20
2019-02-25T14:50:47.146Z,37.10
2019-02-25T14:53:16.337Z,37.30
2019-02-25T14:55:47.758Z,37.60
2019-02-25T14:58:17.545Z,37.80
2019-02-25T15:00:46.860Z,37.90
2019-02-25T15:03:16.381Z,38.00
2019-02-25T15:05:47.916Z,37.90
2019-02-25T15:08:17.790Z,38.20
2019-02-25T15:10:46.963Z,38.20
2019-02-25T15:13:16.407Z,38.30
2019-02-25T15:15:46.250Z,38.40
2019-02-25T15:18:16.482Z,38.40
2019-02-25T15:20:45.601Z,38.50
2019-02-25T15:23:16.700Z,38.60
2019-02-25T15:25:47.169Z,38.60
2019-02-25T15:28:18.318Z,38.60
2019-02-25T15:30:47.940Z,38.70
2019-02-25T15:33:16.942Z,39.20
2019-02-25T15:35:46.158Z,39.30
2019-02-25T15:38:15.344Z,39.70
2019-02-25T15:40:44.494Z,39.20
2019-02-25T15:43:17.548Z,39.40
2019-02-25T15:45:45.930Z,39.80
2019-02-25T15:48:16.902Z,39.60
2019-02-25T15:50:48.407Z,39.30
2019-02-25T15:53:17.663Z,39.60
2019-02-25T15:55:47.309Z,39.90
2019-02-25T15:58:17.571Z,39.50
2019-02-25T16:00:46.985Z,39.30
2019-02-25T16:03:20.280Z,39.50
2019-02-25T16:05:47.638Z,39.50
2019-02-25T16:08:19.182Z,39.40
2019-02-25T16:10:49.444Z,39.70
2019-02-25T16:13:19.226Z,39.80
2019-02-25T16:15:48.510Z,40.00
2019-02-25T16:18:18.081Z,39.50
2019-02-25T16:20:47.377Z,39.90
2019-02-25T16:23:16.826Z,39.60
2019-02-25T16:25:48.769Z,39.20
2019-02-25T16:28:18.319Z,39.70
2019-02-25T16:30:49.125Z,39.80
2019-02-25T16:33:19.276Z,39.50
2019-02-25T16:35:48.470Z,39.90
2019-02-25T16:38:21.061Z,40.10
2019-02-25T16:40:50.241Z,40.20
2019-02-25T16:43:20.282Z,39.90
2019-02-25T16:45:51.090Z,40.20
2019-02-25T16:48:25.574Z,40.10
2019-02-25T16:50:54.346Z,40.10
2019-02-25T16:53:23.589Z,40.30
2019-02-25T16:55:52.995Z,40.40
2019-02-25T16:58:22.540Z,40.30
2019-02-25T17:00:55.994Z,40.70
2019-02-25T17:03:23.828Z,40.90
2019-02-25T17:05:53.099Z,41.10
2019-02-25T17:08:24.012Z,41.60
2019-02-25T17:10:56.191Z,42.00
2019-02-25T17:13:26.190Z,41.80
2019-02-25T17:15:56.100Z,41.90
2019-02-25T17:18:25.448Z,41.90
2019-02-25T17:20:54.560Z,42.50
2019-02-25T17:23:27.187Z,42.50
2019-02-25T17:25:54.476Z,42.60
2019-02-25T17:28:25.027Z,43.00
2019-02-25T17:30:54.193Z,43.50
2019-02-25T17:33:25.769Z,43.40
2019-02-25T17:35:54.558Z,43.70
2019-02-25T17:38:25.111Z,43.90
2019-02-25T17:40:55.667Z,44.30
2019-02-25T17:43:27.214Z,44.80
2019-02-25T17:46:00.588Z,45.00
2019-02-25T17:48:32.061Z,45.30
2019-02-25T17:51:02.143Z,46.00
2019-02-25T17:53:33.654Z,46.20
2019-02-25T17:56:03.233Z,46.30
2019-02-25T17:58:37.717Z,46.20
2019-02-25T18:01:08.361Z,46.40
2019-02-25T18:03:39.486Z,46.40
2019-02-25T18:06:12.706Z,47.00
2019-02-25T18:08:47.901Z,47.40
2019-02-25T18:11:24.618Z,47.20
2019-02-25T18:13:58.235Z,47.90
2019-02-25T18:16:35.331Z,48.20
2019-02-25T18:19:05.098Z,48.60
2019-02-25T18:21:35.156Z,48.90
2019-02-25T18:24:04.432Z,48.90
2019-02-25T18:26:33.776Z,49.00
2019-02-25T18:29:02.936Z,49.90
2019-02-25T18:31:32.361Z,50.10
2019-02-25T18:34:02.244Z,50.00
2019-02-25T18:36:32.770Z,49.80
2019-02-25T18:39:02.512Z,49.60
2019-02-25T18:41:34.135Z,49.40
2019-02-25T18:44:02.683Z,49.40
2019-02-25T18:46:31.922Z,49.60
2019-02-25T18:49:02.987Z,50.00
2019-02-25T18:51:32.857Z,50.40
2019-02-25T18:54:03.702Z,50.70
2019-02-25T18:56:33.738Z,51.60
2019-02-25T18:59:12.223Z,51.30
2019-02-25T19:01:35.431Z,51.20
2019-02-25T19:04:04.957Z,51.40
2019-02-25T19:06:34.632Z,52.20
2019-02-25T19:09:05.616Z,51.50
2019-02-25T19:11:34.804Z,51.80
2019-02-25T19:14:04.080Z,52.30
2019-02-25T19:16:33.105Z,52.10
2019-02-25T19:19:04.056Z,52.60
2019-02-25T19:21:34.160Z,52.50
2019-02-25T19:24:05.421Z,52.20
2019-02-25T19:26:34.462Z,52.10
2019-02-25T19:29:03.628Z,53.00
2019-02-25T19:31:33.092Z,52.80
2019-02-25T19:34:02.358Z,53.30
2019-02-25T19:36:34.304Z,53.20
2019-02-25T19:39:07.326Z,53.10
2019-02-25T19:41:34.089Z,53.30
2019-02-25T19:44:04.163Z,53.20
2019-02-25T19:46:34.553Z,53.80
2019-02-25T19:49:04.422Z,53.60
2019-02-25T19:51:33.690Z,53.60
2019-02-25T19:54:06.739Z,54.70
2019-02-25T19:56:34.779Z,53.90
2019-02-25T19:59:05.682Z,54.10
2019-02-25T20:01:34.927Z,54.10
2019-02-25T20:04:06.384Z,54.40
2019-02-25T20:06:35.227Z,54.50
2019-02-25T20:09:07.467Z,54.60
2019-02-25T20:11:36.571Z,54.80
2019-02-25T20:14:05.791Z,55.00
2019-02-25T20:16:39.965Z,55.00
2019-02-25T20:19:13.100Z,55.10
2019-02-25T20:21:43.437Z,54.80
2019-02-25T20:24:14.627Z,55.30
2019-02-25T20:26:52.531Z,55.70
2019-02-25T20:29:20.889Z,56.10
2019-02-25T20:31:51.768Z,56.30
2019-02-25T20:34:23.001Z,56.30
2019-02-25T20:36:55.027Z,56.60
2019-02-25T20:39:24.424Z,56.60
2019-02-25T20:41:54.349Z,56.90
2019-02-25T20:44:26.299Z,56.80
2019-02-25T20:46:57.388Z,56.80
2019-02-25T20:49:30.018Z,56.90
2019-02-25T20:52:01.166Z,57.10
2019-02-25T20:54:30.256Z,57.00
2019-02-25T20:56:59.796Z,57.20
2019-02-25T20:59:30.931Z,57.30
2019-02-25T21:01:59.729Z,58.10
2019-02-25T21:04:29.433Z,58.40
2019-02-25T21:06:58.412Z,58.30
2019-02-25T21:09:27.450Z,58.40
2019-02-25T21:11:56.420Z,58.40
2019-02-25T21:14:25.437Z,58.50
2019-02-25T21:16:56.406Z,58.40
2019-02-25T21:19:25.742Z,58.40
2019-02-25T21:22:08.888Z,58.60
2019-02-25T21:24:39.062Z,58.60
2019-02-25T21:27:09.994Z,59.30
2019-02-25T21:29:40.631Z,59.30
2019-02-25T21:32:12.772Z,59.60
2019-02-25T21:34:40.886Z,59.80
2019-02-25T21:37:09.820Z,59.80
2019-02-25T21:39:40.721Z,59.90
2019-02-25T21:42:12.672Z,59.90
2019-02-25T21:44:40.830Z,59.90
2019-02-25T21:47:10.267Z,59.90
2019-02-25T21:49:40.513Z,59.80
2019-02-25T21:52:13.052Z,59.70
2019-02-25T21:54:41.964Z,59.80
2019-02-25T21:57:11.013Z,59.90
2019-02-25T21:59:41.098Z,59.90
2019-02-25T22:02:11.906Z,60.30
2019-02-25T22:04:43.063Z,60.20
2019-02-25T22:07:11.937Z,60.40
2019-02-25T22:09:43.640Z,60.70
2019-02-25T22:12:12.110Z,60.80
2019-02-25T22:14:41.249Z,61.00
2019-02-25T22:17:12.941Z,61.10
2019-02-25T22:19:43.710Z,61.30
2019-02-25T22:22:13.448Z,61.40
2019-02-25T22:24:43.350Z,61.70
2019-02-25T22:27:14.005Z,61.80
2019-02-25T22:29:45.134Z,61.90
2019-02-25T22:32:14.354Z,62.10
2019-02-25T22:34:43.450Z,62.40
2019-02-25T22:37:16.676Z,62.80
2019-02-25T22:39:43.913Z,63.10
2019-02-25T22:42:13.917Z,64.40
2019-02-25T22:44:44.943Z,64.30
2019-02-25T22:47:15.974Z,64.70
2019-02-25T22:49:44.819Z,65.20
2019-02-25T22:52:13.709Z,65.70
2019-02-25T22:54:43.558Z,66.00
2019-02-25T22:57:13.409Z,66.30
2019-02-25T22:59:42.445Z,66.60
2019-02-25T23:02:11.824Z,66.90
2019-02-25T23:04:44.864Z,67.40
2019-02-25T23:07:13.048Z,67.70
2019-02-25T23:09:43.550Z,68.00
2019-02-25T23:12:15.747Z,68.40
2019-02-25T23:14:44.914Z,68.60
2019-02-25T23:17:15.738Z,68.80
2019-02-25T23:19:45.348Z,69.80
2019-02-25T23:22:14.450Z,69.30
2019-02-25T23:24:43.919Z,69.60
2019-02-25T23:27:13.343Z,70.00
2019-02-25T23:29:43.126Z,70.10
2019-02-25T23:32:12.904Z,70.60
2019-02-25T23:34:44.475Z,70.70
2019-02-25T23:37:14.782Z,71.00
2019-02-25T23:39:44.856Z,71.40
2019-02-25T23:42:16.268Z,71.80
2019-02-25T23:44:45.727Z,72.30
2019-02-25T23:47:15.045Z,72.60
2019-02-25T23:49:46.086Z,72.90
2019-02-25T23:52:15.198Z,73.40
2019-02-25T23:54:47.115Z,73.80
2019-02-25T23:57:17.319Z,74.00
2019-02-25T23:59:48.797Z,74.50
